Time;durP1;ratioP1;P1;durP2;ratioP2;P2;SDS_P1;SDS_P2;PMS_P1;PMS_P2;Temp;Humidity;BMP_temperature;BMP_pressure;BME280_temperature;BME280_humidity;BME280_pressure;Samples;Min_cycle;Max_cycle;Signal;HPM_P1;HPM_P2
2021/12/05 00:22:23;;;;;;;13.43;3.58;;;;;;;1.85;100.00;98888.03;5096540;28;20035;-58
2021/12/05 00:24:53;;;;;;;11.80;4.53;;;;;;;1.72;100.00;98879.06;5068108;27;20938;-58
2021/12/05 00:27:20;;;;;;;9.38;3.50;;;;;;;1.78;100.00;98884.00;5105746;27;20402;-58
2021/12/05 00:32:21;;;;;;;10.20;4.00;;;;;;;1.96;100.00;98890.22;5098234;27;20396;-58
2021/12/05 00:48:17;;;;;;;11.77;3.58;;;;;;;1.83;100.00;98876.88;5071182;28;20035;-58
2021/12/05 00:59:16;;;;;;;12.07;3.80;;;;;;;1.97;100.00;98879.78;5081651;27;20073;-58
2021/12/05 01:07:20;;;;;;;14.73;5.18;;;;;;;1.99;100.00;98867.59;5098626;27;20043;-58
2021/12/05 01:12:33;;;;;;;10.25;3.85;;;;;;;1.80;100.00;98861.47;5095907;27;20035;-58
2021/12/05 01:15:06;;;;;;;16.17;4.43;;;;;;;1.92;100.00;98876.53;5090478;27;20035;-58
2021/12/05 01:17:40;;;;;;;10.35;4.07;;;;;;;1.87;100.00;98873.28;5097259;27;20122;-58
2021/12/05 01:20:09;;;;;;;;;;;;;;;1.85;100.00;98877.69;5106706;27;20035;-59
2021/12/05 01:22:39;;;;;;;15.55;3.97;;;;;;;1.84;100.00;98880.31;5087196;28;19922;-59
2021/12/05 01:25:25;;;;;;;12.82;4.47;;;;;;;1.81;100.00;98881.28;5087330;28;20035;-58
2021/12/05 01:28:02;;;;;;;13.70;4.93;;;;;;;1.81;100.00;98891.66;5078189;28;20148;-59
2021/12/05 01:33:11;;;;;;;13.10;3.72;;;;;;;1.31;100.00;98815.13;5075065;27;20766;-59
2021/12/05 01:38:17;;;;;;;10.13;4.45;;;;;;;1.84;100.00;98894.13;5106604;27;20042;-58
2021/12/05 01:56:31;;;;;;;7.00;3.42;;;;;;;1.76;100.00;98888.38;5087394;28;20102;-58
2021/12/05 02:41:56;;;;;;;17.58;3.50;;;;;;;1.95;100.00;98873.81;5074141;28;20071;-58
2021/12/05 02:44:24;;;;;;;14.43;3.22;;;;;;;2.02;100.00;98877.00;5081852;27;20071;-58
2021/12/05 02:47:05;;;;;;;6.05;2.50;;;;;;;2.11;100.00;98868.88;5108077;27;20039;-59
2021/12/05 02:49:32;;;;;;;7.78;3.03;;;;;;;2.16;100.00;98868.69;5094130;27;20032;-59
2021/12/05 02:52:05;;;;;;;6.65;2.47;;;;;;;2.12;100.00;98867.13;5105981;27;20067;-59
2021/12/05 02:54:39;;;;;;;6.40;2.75;;;;;;;2.02;100.00;98856.28;5087572;28;20062;-58
2021/12/05 02:57:05;;;;;;;;;;;;;;;1.99;100.00;98861.59;5093196;27;20043;-59
2021/12/05 03:02:13;;;;;;;8.73;2.88;;;;;;;2.06;100.00;98853.50;5088597;28;20035;-58
2021/12/05 03:04:43;;;;;;;10.73;2.72;;;;;;;2.06;100.00;98847.50;5086211;28;20118;-58
2021/12/05 03:07:10;;;;;;;8.05;2.67;;;;;;;2.03;100.00;98848.44;5099746;27;20038;-58
2021/12/05 03:09:37;;;;;;;10.00;2.78;;;;;;;1.93;100.00;98836.78;5085573;28;20027;-58
2021/12/05 03:12:04;;;;;;;5.57;2.47;;;;;;;1.84;100.00;98834.56;5092277;27;20155;-58
2021/12/05 03:14:30;;;;;;;5.97;2.28;;;;;;;1.75;100.00;98834.94;5097623;27;20030;-58
2021/12/05 03:16:56;;;;;;;5.00;1.90;;;;;;;1.75;100.00;98837.53;5080892;27;20027;-58
2021/12/05 03:19:21;;;;;;;7.57;2.45;;;;;;;1.72;100.00;98832.47;5071394;27;20840;-58
2021/12/05 03:21:49;;;;;;;7.50;2.25;;;;;;;1.75;100.00;98841.88;5089497;27;20035;-58
2021/12/05 03:24:16;;;;;;;13.52;3.13;;;;;;;1.78;100.00;98841.75;5087008;27;20066;-59
2021/12/05 03:26:47;;;;;;;5.55;2.33;;;;;;;1.81;100.00;98836.44;5098158;27;20031;-58
2021/12/05 03:29:14;;;;;;;6.68;2.22;;;;;;;1.86;100.00;98831.94;5085527;28;20070;-58
2021/12/05 03:31:40;;;;;;;7.32;3.35;;;;;;;1.87;100.00;98831.84;5069629;28;20063;-58
2021/12/05 03:34:07;;;;;;;6.25;2.78;;;;;;;1.84;100.00;98826.78;5077372;28;20993;-58
2021/12/05 03:36:33;;;;;;;10.40;2.78;;;;;;;1.84;100.00;98825.94;5082264;27;20827;-58
2021/12/05 03:38:58;;;;;;;7.30;2.58;;;;;;;1.83;100.00;98827.69;5098345;27;20088;-58
2021/12/05 03:41:24;;;;;;;7.20;2.20;;;;;;;1.82;100.00;98822.59;5078464;28;20036;-58
2021/12/05 03:43:52;;;;;;;8.48;2.45;;;;;;;1.85;100.00;98823.31;5096820;27;20058;-58
2021/12/05 03:46:18;;;;;;;15.68;2.58;;;;;;;1.92;100.00;98829.94;5101059;28;20031;-58
2021/12/05 03:48:47;;;;;;;5.70;2.88;;;;;;;1.95;100.00;98828.97;5095513;28;20107;-58
2021/12/05 03:51:16;;;;;;;5.80;2.30;;;;;;;1.94;100.00;98828.09;5085007;28;20028;-59
2021/12/05 03:53:42;;;;;;;8.90;2.42;;;;;;;1.88;100.00;98828.38;5090507;28;20172;-58
2021/12/05 03:56:08;;;;;;;6.95;1.98;;;;;;;1.99;100.00;98839.09;5105175;28;20042;-58
2021/12/05 03:58:35;;;;;;;10.00;2.38;;;;;;;2.09;100.00;98846.53;5072799;28;20038;-58
2021/12/05 04:01:01;;;;;;;5.53;1.90;;;;;;;2.02;100.00;98820.03;5088926;28;20130;-59
2021/12/05 04:03:29;;;;;;;13.43;2.33;;;;;;;2.17;100.00;98839.25;5089138;28;20034;-58
2021/12/05 04:05:54;;;;;;;8.13;2.60;;;;;;;2.22;100.00;98851.13;5097138;27;20522;-58
2021/12/05 04:08:22;;;;;;;4.60;2.22;;;;;;;2.30;100.00;98843.88;5091530;27;20067;-58
2021/12/05 04:10:52;;;;;;;6.65;2.42;;;;;;;2.37;100.00;98842.72;5089271;28;20046;-58
2021/12/05 04:13:18;;;;;;;6.65;1.92;;;;;;;2.43;100.00;98836.44;5102318;27;20045;-58
2021/12/05 04:15:45;;;;;;;5.75;2.17;;;;;;;2.45;100.00;98829.44;5094566;27;20085;-58
2021/12/05 04:18:10;;;;;;;6.93;2.22;;;;;;;2.49;100.00;98838.78;5096094;27;20168;-58
2021/12/05 04:20:36;;;;;;;9.80;2.22;;;;;;;2.32;100.00;98810.13;5101940;27;20035;-58
2021/12/05 04:23:01;;;;;;;5.55;2.20;;;;;;;2.57;100.00;98839.25;5095505;27;20038;-58
2021/12/05 04:25:28;;;;;;;5.82;1.70;;;;;;;2.26;100.00;98787.09;5076530;28;20856;-58
2021/12/05 04:27:54;;;;;;;5.25;1.88;;;;;;;2.24;100.00;98776.78;5103814;27;20166;-59
2021/12/05 04:30:22;;;;;;;8.45;1.92;;;;;;;2.62;100.00;98831.31;5086183;27;20114;-58
2021/12/05 04:32:47;;;;;;;4.40;1.75;;;;;;;2.60;100.00;98826.19;5081903;27;20023;-59
2021/12/05 04:35:13;;;;;;;5.88;1.77;;;;;;;2.48;100.00;98803.38;5096408;27;20034;-58
2021/12/05 04:37:39;;;;;;;5.18;1.92;;;;;;;2.60;100.00;98818.41;5090216;27;20079;-58
2021/12/05 04:40:07;;;;;;;9.10;1.58;;;;;;;2.62;100.00;98821.78;5100326;27;20541;-58
2021/12/05 04:42:33;;;;;;;3.30;1.30;;;;;;;2.60;100.00;98818.41;5075517;27;20036;-58
2021/12/05 04:45:06;;;;;;;8.25;1.95;;;;;;;2.63;100.00;98812.25;5086383;28;20038;-58
2021/12/05 04:47:31;;;;;;;9.50;1.80;;;;;;;2.53;100.00;98796.25;5098176;27;20489;-58
2021/12/05 04:49:57;;;;;;;5.18;1.70;;;;;;;2.71;100.00;98826.56;5074672;27;20042;-58
2021/12/05 04:52:22;;;;;;;5.85;1.52;;;;;;;2.74;100.00;98818.63;5086502;28;20035;-58
2021/12/05 04:54:48;;;;;;;4.15;2.00;;;;;;;2.79;100.00;98823.63;5100077;27;20099;-58
2021/12/05 04:57:13;;;;;;;3.45;1.20;;;;;;;2.81;100.00;98827.81;5093278;27;20023;-58
2021/12/05 04:59:45;;;;;;;3.70;1.80;;;;;;;2.83;100.00;98820.84;5085129;27;20035;-58
2021/12/05 05:02:11;;;;;;;4.80;1.65;;;;;;;2.84;100.00;98822.50;5072600;27;20497;-58
2021/12/05 05:04:47;;;;;;;4.22;1.50;;;;;;;2.84;100.00;98824.28;5097312;27;20034;-58
2021/12/05 05:07:33;;;;;;;3.92;1.33;;;;;;;2.85;100.00;98826.78;5097041;27;20841;-58
2021/12/05 05:10:11;;;;;;;3.28;1.48;;;;;;;2.86;100.00;98823.28;5090511;27;20055;-58
2021/12/05 05:12:37;;;;;;;9.48;1.38;;;;;;;2.87;100.00;98830.16;5101668;27;20173;-59
2021/12/05 05:15:03;;;;;;;3.20;1.35;;;;;;;2.91;100.00;98829.09;5087515;28;20031;-58
2021/12/05 05:17:29;;;;;;;2.83;1.20;;;;;;;2.91;100.00;98823.91;5088658;27;20040;-58
2021/12/05 05:20:02;;;;;;;3.92;1.30;;;;;;;2.88;100.00;98818.88;5086095;28;20619;-58
2021/12/05 05:26:02;;;;;;;7.78;1.67;;;;;;;2.78;100.00;98820.19;5048498;28;20082;-58
2021/12/05 05:47:26;;;;;;;2.85;1.20;;;;;;;2.57;100.00;98840.09;5087337;27;20049;-59
2021/12/05 05:49:57;;;;;;;5.55;1.40;;;;;;;2.56;100.00;98842.78;5106463;27;20098;-59
2021/12/05 05:52:22;;;;;;;2.53;1.38;;;;;;;2.53;100.00;98842.91;5091700;27;20148;-58
2021/12/05 05:54:49;;;;;;;3.83;1.33;;;;;;;2.52;100.00;98843.81;5078143;27;20824;-58
2021/12/05 06:00:30;;;;;;;3.15;1.40;;;;;;;2.51;100.00;98848.16;5040859;28;20032;-58
2021/12/05 06:05:40;;;;;;;10.18;1.88;;;;;;;2.30;100.00;98828.31;5083851;27;20054;-58
2021/12/05 06:08:06;;;;;;;5.22;2.20;;;;;;;2.52;100.00;98868.00;5082706;28;20973;-58
2021/12/05 06:10:33;;;;;;;9.32;2.17;;;;;;;2.52;100.00;98856.78;5094090;27;20220;-58
2021/12/05 06:12:59;;;;;;;3.50;1.80;;;;;;;2.51;100.00;98853.34;5080416;28;20027;-58
2021/12/05 06:15:26;;;;;;;9.85;2.47;;;;;;;2.40;100.00;98836.56;5093998;27;20409;-58
2021/12/05 06:17:54;;;;;;;4.85;2.10;;;;;;;2.52;100.00;98856.78;5085454;27;20138;-58
2021/12/05 06:20:24;;;;;;;5.97;2.33;;;;;;;2.51;100.00;98860.28;5083960;27;20038;-58
2021/12/05 06:22:50;;;;;;;4.45;2.00;;;;;;;2.52;100.00;98856.78;5081209;27;20155;-58
2021/12/05 06:25:23;;;;;;;4.05;1.80;;;;;;;2.52;100.00;98864.56;5101621;27;20031;-58
2021/12/05 06:27:50;;;;;;;5.97;2.33;;;;;;;2.52;100.00;98856.78;5090440;27;20059;-58
2021/12/05 06:30:26;;;;;;;7.03;2.10;;;;;;;2.52;100.00;98862.81;5065222;28;20031;-58
2021/12/05 06:38:42;;;;;;;8.60;2.47;;;;;;;2.52;100.00;98864.56;5080106;28;20098;-58
2021/12/05 06:48:47;;;;;;;4.47;1.97;;;;;;;2.55;100.00;98872.19;5067645;27;20042;-58
2021/12/05 06:51:17;;;;;;;4.47;1.80;;;;;;;2.55;100.00;98867.00;5087608;27;20740;-58
2021/12/05 06:53:42;;;;;;;8.73;2.35;;;;;;;2.56;100.00;98879.94;5091356;27;20040;-58
2021/12/05 06:56:08;;;;;;;5.47;2.35;;;;;;;2.56;100.00;98873.91;5095820;27;20810;-58
2021/12/05 06:58:34;;;;;;;6.00;3.25;;;;;;;2.56;100.00;98879.06;5077534;27;20032;-58
2021/12/05 07:01:01;;;;;;;3.45;2.20;;;;;;;2.19;100.00;98819.34;5077234;28;20038;-58
2021/12/05 07:03:27;;;;;;;5.28;2.65;;;;;;;2.50;100.00;98864.59;5104044;27;20019;-58
2021/12/05 07:06:00;;;;;;;8.68;3.13;;;;;;;1.99;100.00;98787.31;5104407;27;20023;-58
2021/12/05 07:08:29;;;;;;;5.70;2.63;;;;;;;2.56;100.00;98886.84;5084422;27;20080;-58
2021/12/05 07:11:01;;;;;;;3.38;2.28;;;;;;;2.55;100.00;98879.97;5094576;27;20068;-58
2021/12/05 07:21:17;;;;;;;8.52;3.05;;;;;;;2.56;100.00;98884.25;5091564;27;20736;-58
2021/12/05 07:42:23;;;;;;;6.85;3.00;;;;;;;2.56;100.00;98902.41;5096462;27;20100;-58
2021/12/05 07:44:50;;;;;;;4.15;2.70;;;;;;;2.30;100.00;98863.78;5083559;27;20080;-58
2021/12/05 07:47:19;;;;;;;7.80;2.70;;;;;;;2.60;100.00;98911.75;5080194;27;20149;-58
2021/12/05 07:49:48;;;;;;;5.57;2.83;;;;;;;2.61;100.00;98912.56;5088184;28;20038;-58
2021/12/05 07:52:19;;;;;;;7.38;3.20;;;;;;;2.49;100.00;98888.00;5073952;28;20961;-58
2021/12/05 07:54:49;;;;;;;6.10;2.60;;;;;;;2.61;100.00;98913.41;5068641;28;20955;-58
2021/12/05 07:57:20;;;;;;;4.60;2.88;;;;;;;2.64;100.00;98925.44;5067927;28;20040;-58
2021/12/05 08:16:08;;;;;;;5.35;3.33;;;;;;;2.47;100.00;98908.81;5063851;28;20095;-58
2021/12/05 08:18:33;;;;;;;6.05;3.42;;;;;;;2.56;100.00;98928.34;5066389;28;20059;-59
2021/12/05 08:21:00;;;;;;;8.15;3.90;;;;;;;2.74;100.00;98950.88;5062333;28;20035;-61
2021/12/05 08:23:26;;;;;;;6.65;3.47;;;;;;;2.74;100.00;98955.25;5066135;28;20024;-62
2021/12/05 08:26:03;;;;;;;4.70;3.47;;;;;;;2.78;100.00;98961.97;5045209;28;20036;-61
2021/12/05 08:31:13;;;;;;;8.05;4.78;;;;;;;2.82;100.00;98964.38;5061715;28;20043;-58
2021/12/05 08:34:08;;;;;;;7.22;4.38;;;;;;;2.58;100.00;98923.91;5065248;28;20505;-58
2021/12/05 08:42:07;;;;;;;6.20;4.15;;;;;;;2.84;100.00;98970.34;5074497;28;20065;-59
2021/12/05 09:23:37;;;;;;;4.82;2.90;;;;;;;2.64;100.00;98982.47;5068513;28;20042;-55
2021/12/05 10:15:02;;;;;;;6.65;4.38;;;;;;;3.38;100.00;99067.53;5057963;28;20881;-58
2021/12/05 10:17:55;;;;;;;6.70;4.60;;;;;;;3.52;100.00;99067.75;5072882;27;20033;-56
2021/12/05 10:35:24;;;;;;;4.93;2.80;;;;;;;3.89;100.00;99091.22;5065219;28;20843;-57
2021/12/05 10:38:12;;;;;;;7.97;3.13;;;;;;;3.76;100.00;99060.66;5066990;28;20272;-54
2021/12/05 10:40:58;;;;;;;5.47;3.25;;;;;;;4.02;100.00;99094.97;5060579;28;20797;-55
2021/12/05 10:43:25;;;;;;;4.72;3.00;;;;;;;4.04;100.00;99093.16;5062832;27;20036;-56
2021/12/05 10:45:57;;;;;;;6.32;2.70;;;;;;;4.06;100.00;99096.53;5066477;27;20024;-55
2021/12/05 10:48:29;;;;;;;5.63;3.13;;;;;;;3.93;100.00;99077.19;5065129;28;20031;-55
2021/12/05 10:51:02;;;;;;;9.77;3.50;;;;;;;3.94;100.00;99078.88;5066623;28;20837;-56
2021/12/05 10:53:36;;;;;;;4.38;2.80;;;;;;;4.10;100.00;99103.28;5064273;28;20124;-54
2021/12/05 10:56:24;;;;;;;7.35;3.50;;;;;;;4.15;100.00;99104.84;5061339;28;20156;-58
2021/12/05 10:59:36;;;;;;;4.07;2.85;;;;;;;4.20;100.00;99100.25;5059572;28;20809;-58
2021/12/05 11:02:05;;;;;;;5.03;3.15;;;;;;;3.99;100.00;99058.72;5055636;28;20142;-58
2021/12/05 11:04:38;;;;;;;8.70;3.47;;;;;;;4.21;100.00;99101.94;5066481;27;20078;-58
2021/12/05 11:07:07;;;;;;;4.47;2.88;;;;;;;4.22;100.00;99103.66;5044713;28;20028;-58
2021/12/05 11:09:41;;;;;;;4.53;2.78;;;;;;;4.28;100.00;99104.22;5055512;28;20035;-57
2021/12/05 11:12:19;;;;;;;4.55;2.83;;;;;;;4.16;100.00;99070.13;5062777;28;20035;-57
2021/12/05 11:14:48;;;;;;;5.45;2.60;;;;;;;4.44;100.00;99099.97;5066561;28;20077;-57
2021/12/05 11:17:21;;;;;;;5.82;2.60;;;;;;;4.34;100.00;99109.13;5076884;27;20040;-57
2021/12/05 11:19:59;;;;;;;4.30;2.30;;;;;;;4.29;100.00;99105.06;5071602;27;20023;-58
2021/12/05 11:22:28;;;;;;;4.80;2.40;;;;;;;4.23;100.00;99106.16;5071850;27;20134;-59
2021/12/05 11:24:56;;;;;;;4.03;2.17;;;;;;;4.26;100.00;99115.59;5066596;27;20024;-58
2021/12/05 11:27:36;;;;;;;3.72;1.95;;;;;;;4.23;100.00;99103.56;5064871;28;20469;-58
2021/12/05 11:30:09;;;;;;;9.13;2.28;;;;;;;4.28;100.00;99105.97;5065671;28;20057;-58
2021/12/05 11:32:50;;;;;;;12.32;3.08;;;;;;;4.36;100.00;99109.88;5076274;27;20063;-58
2021/12/05 11:35:30;;;;;;;2.92;1.80;;;;;;;4.40;100.00;99110.59;5057742;28;20058;-58
2021/12/05 11:38:21;;;;;;;3.92;2.40;;;;;;;4.38;100.00;99115.03;5071891;27;20033;-58
2021/12/05 11:40:46;;;;;;;2.85;1.65;;;;;;;4.36;100.00;99117.69;5062224;28;20100;-59
2021/12/05 11:43:17;;;;;;;4.57;1.85;;;;;;;4.20;100.00;99121.03;5065767;28;20031;-58
2021/12/05 11:46:05;;;;;;;3.38;2.05;;;;;;;4.09;100.00;99126.72;5066633;28;20163;-58
2021/12/05 11:48:35;;;;;;;2.35;1.45;;;;;;;4.06;100.00;99135.50;5049840;28;20085;-58
2021/12/05 11:51:18;;;;;;;2.90;1.60;;;;;;;3.71;100.00;99091.19;5060795;28;20032;-59
2021/12/05 11:53:49;;;;;;;3.92;1.70;;;;;;;3.91;100.00;99146.59;5060889;28;20027;-57
2021/12/05 11:56:40;;;;;;;4.97;2.10;;;;;;;3.98;100.00;99141.97;5064325;28;20217;-57
2021/12/05 11:59:06;;;;;;;3.22;1.85;;;;;;;4.04;100.00;99147.72;5040989;28;20035;-57
2021/12/05 12:01:42;;;;;;;4.35;1.50;;;;;;;4.05;100.00;99144.22;5066978;28;20090;-57
2021/12/05 12:04:09;;;;;;;3.97;2.03;;;;;;;4.13;100.00;99151.66;5065368;28;20057;-58
2021/12/05 12:06:35;;;;;;;4.80;2.10;;;;;;;4.30;100.00;99148.31;5053365;28;20028;-58
2021/12/05 12:09:01;;;;;;;4.97;1.98;;;;;;;4.49;100.00;99149.19;5065068;28;20089;-58
2021/12/05 12:11:27;;;;;;;3.50;1.70;;;;;;;4.66;100.00;99144.06;5065674;28;20027;-58
2021/12/05 12:13:54;;;;;;;3.35;1.85;;;;;;;4.81;100.00;99143.31;5066115;28;20027;-58
2021/12/05 12:16:21;;;;;;;2.58;1.50;;;;;;;5.09;100.00;99140.25;5065011;28;20892;-58
2021/12/05 12:18:48;;;;;;;2.38;1.10;;;;;;;5.25;100.00;99142.97;5075355;27;20023;-58
2021/12/05 12:21:23;;;;;;;6.25;2.28;;;;;;;5.36;100.00;99144.13;5075479;27;20097;-58
2021/12/05 12:23:51;;;;;;;3.20;1.33;;;;;;;5.50;100.00;99138.25;5069351;28;20039;-58
2021/12/05 12:26:17;;;;;;;2.63;1.45;;;;;;;5.48;100.00;99142.66;5068577;28;20039;-58
2021/12/05 12:28:43;;;;;;;2.92;1.60;;;;;;;4.85;100.00;99074.63;5069632;27;20826;-58
2021/12/05 12:31:17;;;;;;;3.25;1.48;;;;;;;5.22;100.00;99149.16;5085594;27;20015;-58
2021/12/05 12:33:58;;;;;;;4.22;1.85;;;;;;;5.15;100.00;99143.41;5077705;27;20275;-57
2021/12/05 12:36:51;;;;;;;3.42;1.73;;;;;;;5.02;100.00;99150.13;5046503;28;20097;-57
2021/12/05 12:39:17;;;;;;;2.65;1.60;;;;;;;4.91;100.00;99152.38;5054729;28;20042;-58
2021/12/05 12:41:47;;;;;;;2.88;1.27;;;;;;;4.85;100.00;99155.28;5068155;28;20039;-58
2021/12/05 12:44:13;;;;;;;3.65;1.75;;;;;;;4.76;100.00;99167.88;5050467;28;20031;-58
2021/12/05 12:46:50;;;;;;;3.70;1.73;;;;;;;4.66;100.00;99167.47;5082448;27;20062;-58
2021/12/05 12:49:15;;;;;;;2.88;1.60;;;;;;;4.51;100.00;99168.16;5084993;27;20027;-58
2021/12/05 12:51:50;;;;;;;4.78;1.98;;;;;;;4.43;100.00;99160.69;5075447;27;20921;-58
2021/12/05 12:54:24;;;;;;;;;;;;;;;4.42;100.00;99173.78;5082274;27;20052;-58
2021/12/05 12:57:08;;;;;;;6.80;2.05;;;;;;;4.35;100.00;99174.97;5084277;27;20867;-58
2021/12/05 12:59:37;;;;;;;3.42;1.63;;;;;;;4.24;100.00;99177.19;5067588;27;20800;-58
2021/12/05 13:05:03;;;;;;;7.07;2.83;;;;;;;4.09;100.00;99171.75;5067488;28;20062;-58
2021/12/05 13:10:11;;;;;;;5.20;2.63;;;;;;;3.92;100.00;99179.44;5079734;27;20826;-57
2021/12/05 13:12:42;;;;;;;6.47;2.33;;;;;;;3.98;100.00;99180.94;5069716;27;20035;-57
2021/12/05 13:15:16;;;;;;;3.40;2.30;;;;;;;4.05;100.00;99183.22;5068079;28;20027;-57
2021/12/05 13:17:58;;;;;;;4.90;2.75;;;;;;;3.91;100.00;99163.91;5070188;27;20031;-57
2021/12/05 13:20:41;;;;;;;3.95;2.38;;;;;;;3.87;100.00;99180.53;5056314;28;20150;-57
2021/12/05 13:23:10;;;;;;;4.55;2.95;;;;;;;3.76;100.00;99188.78;5068298;28;20095;-57
2021/12/05 13:25:57;;;;;;;5.00;2.83;;;;;;;3.71;100.00;99189.91;5068711;28;20414;-57
2021/12/05 13:28:34;;;;;;;6.55;2.60;;;;;;;3.45;100.00;99167.59;5055473;28;20028;-58
2021/12/05 13:31:01;;;;;;;4.00;2.58;;;;;;;3.47;100.00;99181.38;5067460;28;20028;-57
2021/12/05 13:33:31;;;;;;;5.18;2.83;;;;;;;3.53;100.00;99210.53;5041042;28;20131;-57
2021/12/05 13:35:58;;;;;;;4.55;2.78;;;;;;;3.44;100.00;99197.06;5063682;27;20123;-57
2021/12/05 13:38:50;;;;;;;5.53;2.92;;;;;;;3.52;100.00;99220.97;5068026;27;20080;-57
2021/12/05 13:41:21;;;;;;;3.97;2.53;;;;;;;3.51;100.00;99220.13;5059797;27;20086;-58
2021/12/05 13:44:01;;;;;;;5.97;3.55;;;;;;;3.48;100.00;99233.22;5065482;27;20030;-60
2021/12/05 13:46:35;;;;;;;5.32;3.55;;;;;;;3.47;100.00;99230.69;5085647;27;20872;-59
2021/12/05 13:49:03;;;;;;;6.93;3.95;;;;;;;3.46;100.00;99236.78;5072575;27;20476;-56
2021/12/05 13:51:28;;;;;;;4.88;3.30;;;;;;;3.41;100.00;99231.78;5057270;27;20016;-57
2021/12/05 13:53:57;;;;;;;6.68;4.03;;;;;;;3.47;100.00;99243.69;5068561;28;20172;-57
2021/12/05 13:56:25;;;;;;;7.95;3.88;;;;;;;3.48;100.00;99245.38;5062054;27;20036;-59
2021/12/05 13:58:53;;;;;;;5.55;3.80;;;;;;;3.54;100.00;99247.72;5073308;27;20051;-57
2021/12/05 14:01:31;;;;;;;5.90;3.83;;;;;;;3.57;100.00;99245.00;5091866;27;20034;-57
2021/12/05 14:04:27;;;;;;;5.97;3.92;;;;;;;3.58;100.00;99252.72;5088044;27;20130;-57
2021/12/05 14:07:05;;;;;;;6.90;4.10;;;;;;;3.59;100.00;99251.81;5047882;28;20047;-57
2021/12/05 14:09:42;;;;;;;6.35;4.43;;;;;;;3.58;100.00;99264.88;5079372;28;20042;-57
2021/12/05 14:12:13;;;;;;;5.55;3.88;;;;;;;3.57;100.00;99263.19;5081508;27;20027;-57
2021/12/05 14:14:44;;;;;;;9.35;4.43;;;;;;;3.56;100.00;99266.69;5088738;27;20112;-53
2021/12/05 14:17:22;;;;;;;7.18;4.88;;;;;;;3.59;100.00;99276.94;5085125;27;20134;-60
2021/12/05 14:19:51;;;;;;;9.00;4.78;;;;;;;3.60;100.00;99281.22;5088543;27;20027;-60
2021/12/05 14:22:18;;;;;;;17.80;10.02;;;;;;;3.62;100.00;99284.59;5065776;27;20020;-60
2021/12/05 14:24:48;;;;;;;11.85;8.85;;;;;;;3.35;100.00;99251.94;5060838;28;20024;-60
2021/12/05 14:27:22;;;;;;;9.32;6.82;;;;;;;3.60;100.00;99284.69;5067942;28;20028;-55
2021/12/05 14:29:49;;;;;;;7.35;5.75;;;;;;;3.60;100.00;99286.44;5058792;28;20036;-56
2021/12/05 14:32:22;;;;;;;7.07;6.13;;;;;;;3.62;100.00;99286.38;5067469;28;20024;-58
2021/12/05 14:34:53;;;;;;;7.75;5.28;;;;;;;3.62;100.00;99287.19;5065003;28;20047;-58
2021/12/05 14:37:21;;;;;;;8.55;5.55;;;;;;;3.64;100.00;99295.78;5048023;28;20427;-57
2021/12/05 14:40:02;;;;;;;8.50;5.47;;;;;;;3.65;100.00;99294.88;5077984;27;20051;-57
2021/12/05 14:42:31;;;;;;;6.05;4.60;;;;;;;3.64;100.00;99295.78;5037108;28;20517;-57
2021/12/05 14:44:59;;;;;;;7.28;5.15;;;;;;;3.68;100.00;99309.50;5047139;27;20031;-57
2021/12/05 14:47:30;;;;;;;7.70;5.45;;;;;;;3.67;100.00;99316.44;5058409;27;20046;-58
2021/12/05 14:50:01;;;;;;;8.75;5.68;;;;;;;3.66;100.00;99317.34;5065813;28;20028;-57
2021/12/05 14:52:30;;;;;;;9.13;5.07;;;;;;;3.64;100.00;99316.56;5039177;28;20544;-57
2021/12/05 14:54:56;;;;;;;8.57;5.65;;;;;;;3.65;100.00;99325.22;5052393;27;20026;-57
2021/12/05 14:57:24;;;;;;;8.38;5.88;;;;;;;3.65;100.00;99325.22;5054806;28;20109;-57
2021/12/05 14:59:52;;;;;;;14.98;8.20;;;;;;;3.64;100.00;99333.91;5051260;27;20035;-57
2021/12/05 15:02:19;;;;;;;12.57;8.77;;;;;;;3.66;100.00;99329.47;5051358;27;20129;-57
2021/12/05 15:04:50;;;;;;;12.40;8.20;;;;;;;3.65;100.00;99336.41;5072701;27;20051;-57
2021/12/05 15:07:20;;;;;;;14.63;6.38;;;;;;;3.65;100.00;99333.81;5052937;27;20055;-57
2021/12/05 15:09:49;;;;;;;8.93;5.75;;;;;;;3.64;100.00;99347.75;5053039;27;20032;-57
2021/12/05 15:12:31;;;;;;;10.57;5.00;;;;;;;3.52;100.00;99330.03;5068816;27;20413;-57
2021/12/05 15:14:59;;;;;;;7.38;5.25;;;;;;;3.60;100.00;99351.34;5055320;27;20067;-57
2021/12/05 15:17:37;;;;;;;7.75;5.55;;;;;;;3.57;100.00;99346.28;5048217;28;20031;-57
2021/12/05 15:20:08;;;;;;;9.07;5.90;;;;;;;3.56;100.00;99353.22;5051552;28;20035;-57
2021/12/05 15:22:34;;;;;;;6.55;4.47;;;;;;;3.55;100.00;99355.88;5061085;28;20135;-58
2021/12/05 15:25:20;;;;;;;18.10;12.55;;;;;;;3.55;100.00;99359.31;5062363;27;20867;-58
2021/12/05 15:27:47;;;;;;;40.33;23.83;;;;;;;3.53;100.00;99376.72;5062175;27;20055;-58
2021/12/05 15:30:18;;;;;;;12.13;7.28;;;;;;;3.51;100.00;99369.91;5063326;27;20031;-59
2021/12/05 15:32:45;;;;;;;9.50;5.90;;;;;;;3.48;100.00;99375.22;5055408;27;20096;-58
2021/12/05 15:35:17;;;;;;;10.65;5.15;;;;;;;3.37;100.00;99359.19;5046464;28;20023;-59
2021/12/05 15:37:56;;;;;;;7.65;5.50;;;;;;;3.49;100.00;99382.06;5061363;27;20028;-59
2021/12/05 15:40:24;;;;;;;7.32;5.22;;;;;;;3.49;100.00;99388.13;5060173;28;20355;-58
2021/12/05 15:42:51;;;;;;;7.85;5.38;;;;;;;3.48;100.00;99385.59;5060673;28;20078;-56
2021/12/05 15:45:19;;;;;;;7.82;5.40;;;;;;;3.47;100.00;99383.88;5053327;27;20048;-57
2021/12/05 15:47:46;;;;;;;8.38;5.30;;;;;;;3.47;100.00;99402.06;5058992;27;20024;-58
2021/12/05 15:50:14;;;;;;;7.70;5.20;;;;;;;3.20;100.00;99365.00;5058464;28;20024;-58
2021/12/05 15:52:51;;;;;;;8.23;5.25;;;;;;;3.48;100.00;99419.34;5061728;28;20024;-58
2021/12/05 15:55:42;;;;;;;8.50;4.68;;;;;;;3.48;100.00;99421.94;5057493;28;20020;-58
2021/12/05 15:58:18;;;;;;;7.57;5.63;;;;;;;3.06;100.00;99355.13;5054369;28;20890;-59
2021/12/05 16:00:48;;;;;;;11.65;5.95;;;;;;;3.47;100.00;99430.63;5052690;28;20122;-58
2021/12/05 16:03:19;;;;;;;14.60;7.15;;;;;;;3.48;100.00;99427.97;5053582;28;20104;-58
2021/12/05 16:05:51;;;;;;;9.98;7.28;;;;;;;3.45;100.00;99432.41;5066406;28;20419;-57
2021/12/05 16:08:17;;;;;;;9.63;6.55;;;;;;;3.48;100.00;99437.53;5079651;28;21013;-59
2021/12/05 16:10:51;;;;;;;9.25;6.28;;;;;;;3.48;100.00;99434.94;5066719;28;20030;-57
2021/12/05 16:13:23;;;;;;;10.07;7.23;;;;;;;3.46;100.00;99450.56;5066319;28;20533;-57
2021/12/05 16:15:52;;;;;;;10.63;6.43;;;;;;;3.44;100.00;99451.50;5066135;28;20035;-57
2021/12/05 16:18:18;;;;;;;10.30;6.30;;;;;;;3.40;100.00;99462.91;5065791;28;20054;-57
2021/12/05 16:20:45;;;;;;;9.88;6.88;;;;;;;3.38;100.00;99456.94;5066837;28;20028;-57
2021/12/05 16:23:21;;;;;;;16.02;8.15;;;;;;;3.38;100.00;99462.13;5065578;28;20139;-57
2021/12/05 16:26:02;;;;;;;12.45;9.55;;;;;;;3.35;100.00;99460.47;5053288;28;20036;-57
2021/12/05 16:28:48;;;;;;;13.95;10.18;;;;;;;3.31;100.00;99456.28;5059721;28;20086;-57
2021/12/05 16:31:20;;;;;;;13.18;9.50;;;;;;;3.35;100.00;99467.41;5039338;28;20021;-57
2021/12/05 16:33:51;;;;;;;11.43;8.60;;;;;;;3.33;100.00;99474.41;5059450;28;20085;-57
2021/12/05 16:36:18;;;;;;;13.93;9.30;;;;;;;3.06;100.00;99440.75;5065832;28;20827;-57
2021/12/05 16:38:46;;;;;;;10.68;8.65;;;;;;;3.31;100.00;99486.63;5065628;28;20028;-57
2021/12/05 16:41:38;;;;;;;12.80;9.05;;;;;;;3.29;100.00;99491.84;5066655;28;20020;-58
2021/12/05 16:44:03;;;;;;;11.48;8.40;;;;;;;3.28;100.00;99502.31;5062893;28;20040;-57
2021/12/05 16:46:36;;;;;;;14.95;8.75;;;;;;;3.26;100.00;99504.94;5061249;28;20023;-57
2021/12/05 16:49:05;;;;;;;11.35;8.90;;;;;;;3.25;100.00;99503.22;5066630;28;20038;-57
2021/12/05 16:51:34;;;;;;;15.10;9.35;;;;;;;3.24;100.00;99516.28;5091094;28;20038;-57
2021/12/05 16:54:12;;;;;;;19.77;8.13;;;;;;;3.21;100.00;99511.19;5100202;28;20042;-57
2021/12/05 16:56:45;;;;;;;12.57;9.45;;;;;;;3.20;100.00;99510.34;5096118;28;20106;-57
2021/12/05 16:59:16;;;;;;;12.65;8.82;;;;;;;2.99;100.00;99475.59;5106529;28;20036;-57
2021/12/05 17:01:41;;;;;;;14.52;9.20;;;;;;;3.18;100.00;99512.13;5095596;28;20049;-57
2021/12/05 17:04:07;;;;;;;12.63;8.95;;;;;;;3.20;100.00;99517.28;5105026;28;20039;-57
2021/12/05 17:06:48;;;;;;;8.95;6.68;;;;;;;3.17;100.00;99517.38;5095041;28;20031;-58
2021/12/05 17:09:14;;;;;;;8.95;7.57;;;;;;;3.18;100.00;99526.88;5101098;27;20114;-57
2021/12/05 17:11:40;;;;;;;11.60;7.28;;;;;;;3.12;100.00;99521.88;5122856;27;20397;-58